Time;durP1;ratioP1;P1;durP2;ratioP2;P2;SDS_P1;SDS_P2;PMS_P1;PMS_P2;Temp;Humidity;BMP_temperature;BMP_pressure;BME280_temperature;BME280_humidity;BME280_pressure;Samples;Min_cycle;Max_cycle;Signal;HPM_P1;HPM_P2
2022/09/25 00:00:31;;;;;;;1.85;1.75;;;12.40;73.00;;;;;;5035190;28;20017;-83
2022/09/25 00:02:57;;;;;;;1.98;1.75;;;12.30;73.10;;;;;;5031968;28;20029;-83
2022/09/25 00:05:23;;;;;;;1.95;1.75;;;12.30;73.10;;;;;;5035302;28;20021;-83
2022/09/25 00:07:50;;;;;;;2.10;1.80;;;12.30;73.00;;;;;;5032904;28;20045;-83
2022/09/25 00:10:17;;;;;;;2.25;1.83;;;12.30;73.10;;;;;;5034033;28;20147;-83
2022/09/25 00:12:43;;;;;;;1.77;1.67;;;12.30;73.20;;;;;;5038723;28;20089;-83
2022/09/25 00:15:09;;;;;;;1.63;1.52;;;12.30;73.20;;;;;;5052736;28;20044;-83
2022/09/25 00:17:35;;;;;;;2.10;1.90;;;12.20;73.20;;;;;;5033567;28;20021;-82
2022/09/25 00:20:01;;;;;;;1.88;1.77;;;12.20;73.30;;;;;;5029558;28;20143;-83
2022/09/25 00:22:29;;;;;;;1.88;1.73;;;12.20;73.20;;;;;;5034392;28;20108;-82
2022/09/25 00:24:54;;;;;;;3.20;2.00;;;12.20;73.30;;;;;;5032892;28;20026;-83
2022/09/25 00:27:20;;;;;;;1.92;1.80;;;12.20;73.40;;;;;;5052500;28;20071;-82
2022/09/25 00:29:46;;;;;;;1.80;1.70;;;12.20;73.40;;;;;;5034300;28;20017;-83
2022/09/25 00:32:12;;;;;;;1.85;1.75;;;12.10;73.30;;;;;;5052405;28;20119;-83
2022/09/25 00:34:39;;;;;;;1.90;1.80;;;12.20;73.40;;;;;;5029336;28;20017;-83
2022/09/25 00:37:05;;;;;;;1.60;1.50;;;12.20;73.40;;;;;;5034462;28;20036;-82
2022/09/25 00:39:32;;;;;;;1.88;1.77;;;12.20;73.40;;;;;;5033612;28;20078;-83
2022/09/25 00:41:58;;;;;;;1.50;1.40;;;12.20;73.30;;;;;;5032296;28;20497;-82
2022/09/25 00:45:18;;;;;;;1.63;1.52;;;12.20;73.40;;;;;;5041257;28;20167;-83
2022/09/25 00:47:50;;;;;;;1.95;1.85;;;12.10;73.30;;;;;;4989359;28;20120;-83
2022/09/25 00:50:32;;;;;;;1.95;1.83;;;12.10;73.30;;;;;;5048221;28;20040;-82
2022/09/25 00:53:04;;;;;;;2.30;2.10;;;12.10;73.30;;;;;;5044432;28;20439;-83
2022/09/25 00:55:32;;;;;;;1.70;1.60;;;12.00;73.20;;;;;;5034273;28;20556;-83
2022/09/25 00:58:01;;;;;;;1.70;1.60;;;12.00;73.40;;;;;;5052329;28;20054;-83
2022/09/25 01:00:27;;;;;;;1.60;1.50;;;12.00;73.50;;;;;;5034489;28;20079;-84
2022/09/25 01:02:55;;;;;;;1.90;1.80;;;12.00;73.60;;;;;;5034075;28;20056;-82
2022/09/25 01:05:28;;;;;;;1.80;1.70;;;12.00;73.60;;;;;;5051765;28;20020;-82
2022/09/25 01:07:57;;;;;;;1.98;1.88;;;12.00;73.70;;;;;;5033075;28;20077;-83
2022/09/25 01:10:23;;;;;;;1.85;1.75;;;12.00;73.70;;;;;;5033277;28;20058;-83
2022/09/25 01:12:50;;;;;;;1.58;1.50;;;12.00;73.70;;;;;;5034178;28;20504;-83
2022/09/25 01:15:19;;;;;;;1.60;1.50;;;12.00;73.70;;;;;;5033671;28;20032;-83
2022/09/25 01:17:54;;;;;;;2.00;1.80;;;12.00;73.80;;;;;;5034061;28;20032;-82
2022/09/25 01:20:25;;;;;;;2.30;1.83;;;12.00;73.70;;;;;;5023297;28;20113;-83
2022/09/25 01:22:54;;;;;;;;;;;12.00;73.80;;;;;;5022217;28;20056;-82
2022/09/25 01:25:34;;;;;;;1.60;1.50;;;11.90;73.60;;;;;;5050447;28;19959;-82
2022/09/25 01:28:19;;;;;;;1.58;1.48;;;12.00;73.60;;;;;;5052319;28;20039;-82
2022/09/25 01:30:51;;;;;;;1.77;1.67;;;11.90;73.70;;;;;;5033772;28;20056;-83
2022/09/25 01:33:25;;;;;;;1.70;1.60;;;11.90;73.60;;;;;;5036560;28;20074;-83
2022/09/25 01:36:11;;;;;;;2.35;2.05;;;11.90;73.60;;;;;;5029971;28;20032;-83
2022/09/25 01:38:53;;;;;;;2.28;1.80;;;11.90;73.60;;;;;;5055324;28;20078;-82
2022/09/25 01:41:36;;;;;;;3.17;2.03;;;11.90;73.70;;;;;;5053607;28;20116;-83
2022/09/25 01:44:08;;;;;;;3.35;2.05;;;11.90;73.70;;;;;;5030346;28;20365;-83
2022/09/25 01:46:52;;;;;;;1.88;1.77;;;11.90;73.70;;;;;;5055500;28;20057;-83
2022/09/25 01:49:35;;;;;;;1.90;1.80;;;11.80;73.70;;;;;;5037956;28;20024;-83
2022/09/25 01:52:04;;;;;;;1.88;1.77;;;11.80;73.70;;;;;;5038066;28;20025;-83
2022/09/25 01:54:53;;;;;;;1.65;1.55;;;11.70;73.80;;;;;;5037383;28;20476;-82
2022/09/25 01:57:26;;;;;;;1.80;1.70;;;11.70;74.00;;;;;;5055182;28;20396;-82
2022/09/25 02:00:11;;;;;;;2.03;1.85;;;11.70;74.10;;;;;;5054589;28;20103;-82
2022/09/25 02:02:48;;;;;;;1.73;1.63;;;11.70;74.20;;;;;;5048838;28;20076;-83
2022/09/25 02:05:48;;;;;;;2.05;1.90;;;11.70;74.20;;;;;;5054835;28;20059;-83
2022/09/25 02:08:19;;;;;;;1.95;1.83;;;11.70;74.20;;;;;;5024137;28;20032;-83
2022/09/25 02:10:54;;;;;;;1.90;1.80;;;11.70;74.20;;;;;;5036170;28;20025;-83
2022/09/25 02:13:22;;;;;;;1.80;1.70;;;11.70;74.10;;;;;;5036892;28;20052;-82
2022/09/25 02:15:54;;;;;;;1.92;1.75;;;11.70;74.10;;;;;;5036078;28;20075;-83
2022/09/25 02:21:14;;;;;;;2.03;1.85;;;11.70;74.00;;;;;;5055095;28;20032;-83
2022/09/25 02:23:55;;;;;;;2.42;2.22;;;11.70;74.00;;;;;;5036839;28;20025;-83
2022/09/25 02:26:27;;;;;;;2.22;1.88;;;11.80;74.00;;;;;;5052505;28;20620;-83
2022/09/25 02:28:54;;;;;;;2.00;1.80;;;11.70;73.90;;;;;;5039486;28;20537;-82
2022/09/25 02:31:25;;;;;;;2.08;1.98;;;11.70;73.90;;;;;;5036809;28;20017;-83
2022/09/25 02:33:50;;;;;;;1.90;1.80;;;11.70;73.90;;;;;;5033109;28;20029;-83
2022/09/25 02:36:22;;;;;;;1.90;1.80;;;11.70;73.90;;;;;;5034996;28;20090;-83
2022/09/25 02:38:50;;;;;;;1.95;1.85;;;11.70;73.90;;;;;;5036696;28;20025;-82
2022/09/25 02:41:33;;;;;;;2.00;1.85;;;11.70;74.00;;;;;;5036202;28;20021;-83
2022/09/25 02:44:27;;;;;;;1.98;1.80;;;11.70;74.00;;;;;;5030862;28;20021;-83
2022/09/25 02:47:19;;;;;;;2.20;1.90;;;11.60;73.90;;;;;;5055001;28;20048;-82
2022/09/25 02:49:53;;;;;;;;;;;11.60;74.00;;;;;;5027342;28;20044;-82
2022/09/25 02:52:25;;;;;;;2.05;1.85;;;11.60;74.10;;;;;;5054511;28;20006;-82
2022/09/25 02:54:53;;;;;;;2.10;1.70;;;11.60;74.20;;;;;;5036409;28;20070;-83
2022/09/25 02:57:34;;;;;;;1.85;1.75;;;11.60;74.10;;;;;;5036792;28;20120;-82
2022/09/25 03:00:06;;;;;;;1.90;1.80;;;11.60;74.10;;;;;;5036689;28;20017;-83
2022/09/25 03:02:34;;;;;;;2.15;1.95;;;11.60;74.20;;;;;;5035230;28;20429;-83
2022/09/25 03:05:01;;;;;;;1.85;1.63;;;11.60;74.20;;;;;;5054328;28;20032;-83
2022/09/25 03:07:27;;;;;;;2.17;1.98;;;11.60;74.20;;;;;;5054688;28;20025;-83
2022/09/25 03:09:56;;;;;;;2.58;2.20;;;11.60;74.20;;;;;;5035681;28;20387;-83
2022/09/25 03:12:22;;;;;;;2.67;2.00;;;11.60;74.20;;;;;;5029589;28;20123;-82
2022/09/25 03:14:47;;;;;;;2.08;1.95;;;11.60;74.20;;;;;;5054139;28;20625;-83
2022/09/25 03:17:16;;;;;;;2.22;2.03;;;11.60;74.10;;;;;;5035843;28;20106;-83
2022/09/25 03:19:41;;;;;;;2.20;2.00;;;11.60;74.20;;;;;;5035009;28;20028;-82
2022/09/25 03:22:07;;;;;;;2.45;2.25;;;11.60;74.10;;;;;;5035703;28;20029;-83
2022/09/25 03:24:33;;;;;;;1.92;1.83;;;11.60;74.10;;;;;;5035649;28;20087;-82
2022/09/25 03:26:58;;;;;;;2.42;2.22;;;11.60;74.20;;;;;;5041447;28;20159;-83
2022/09/25 03:29:24;;;;;;;2.30;2.10;;;11.60;74.20;;;;;;5035867;28;20472;-82
2022/09/25 03:31:50;;;;;;;2.28;2.08;;;11.60;74.20;;;;;;5035286;28;20473;-82
2022/09/25 03:34:17;;;;;;;1.92;1.77;;;11.60;74.20;;;;;;5033240;28;20037;-83
2022/09/25 03:36:46;;;;;;;2.15;1.95;;;11.60;74.30;;;;;;5035937;28;20025;-82
2022/09/25 03:39:13;;;;;;;2.50;2.20;;;11.50;74.30;;;;;;5034511;28;20037;-83
2022/09/25 03:41:40;;;;;;;2.35;1.90;;;11.50;74.30;;;;;;5035205;28;20025;-82
2022/09/25 03:44:05;;;;;;;2.45;2.25;;;11.50;74.40;;;;;;5053393;28;20028;-83
2022/09/25 03:46:34;;;;;;;2.58;2.30;;;11.50;74.40;;;;;;5035452;28;20500;-82
2022/09/25 03:49:00;;;;;;;1.90;1.80;;;11.50;74.60;;;;;;5053562;28;20096;-82
2022/09/25 03:51:28;;;;;;;2.20;1.95;;;11.40;74.50;;;;;;5035156;28;20021;-83
2022/09/25 03:53:53;;;;;;;1.98;1.88;;;11.40;74.80;;;;;;5033597;28;20029;-82
2022/09/25 03:56:22;;;;;;;2.30;2.10;;;11.40;74.70;;;;;;5035552;28;20033;-83
2022/09/25 03:58:48;;;;;;;2.50;2.30;;;11.40;74.80;;;;;;5035147;28;20374;-83
2022/09/25 04:01:15;;;;;;;2.40;2.20;;;11.40;74.90;;;;;;5053013;28;20021;-82
2022/09/25 04:03:45;;;;;;;2.05;1.88;;;11.40;75.00;;;;;;5048455;28;20472;-82
2022/09/25 04:06:13;;;;;;;2.40;2.20;;;11.40;75.00;;;;;;5034782;28;20107;-82
2022/09/25 04:08:40;;;;;;;2.45;2.25;;;11.40;75.00;;;;;;5033868;28;20029;-82
2022/09/25 04:11:06;;;;;;;2.53;1.98;;;11.40;75.00;;;;;;5034350;28;20025;-82
2022/09/25 04:13:35;;;;;;;2.95;2.30;;;11.40;75.00;;;;;;5031359;28;20563;-82
2022/09/25 04:16:02;;;;;;;2.33;2.10;;;11.40;75.00;;;;;;5031372;28;20025;-82
2022/09/25 04:18:30;;;;;;;2.30;2.10;;;11.40;75.70;;;;;;5032905;28;20538;-82
2022/09/25 04:20:57;;;;;;;2.67;2.42;;;11.40;75.10;;;;;;5031609;28;20072;-83
2022/09/25 04:23:22;;;;;;;2.50;2.30;;;11.40;75.20;;;;;;5031190;28;20029;-82
2022/09/25 04:25:48;;;;;;;2.25;2.03;;;11.40;75.20;;;;;;5030662;28;20097;-82
2022/09/25 04:28:14;;;;;;;2.45;2.25;;;11.40;75.30;;;;;;5031279;28;20396;-83
2022/09/25 04:30:40;;;;;;;2.45;2.10;;;11.40;75.20;;;;;;5032520;28;20040;-83
2022/09/25 04:35:49;;;;;;;2.38;2.00;;;11.40;75.20;;;;;;5026558;28;20116;-82
2022/09/25 04:38:15;;;;;;;2.50;2.30;;;11.50;75.20;;;;;;5031401;28;20053;-83
2022/09/25 04:40:41;;;;;;;2.25;1.90;;;11.50;75.20;;;;;;5028934;28;20026;-83
2022/09/25 04:43:06;;;;;;;1.90;1.77;;;11.50;75.10;;;;;;5030543;28;20060;-82
2022/09/25 04:45:34;;;;;;;1.95;1.85;;;11.60;75.20;;;;;;5030794;28;20539;-83
2022/09/25 04:48:00;;;;;;;2.10;1.95;;;11.60;75.10;;;;;;5024473;28;20034;-82
2022/09/25 04:50:27;;;;;;;2.20;2.00;;;11.70;75.20;;;;;;5030000;28;20085;-83
2022/09/25 04:52:55;;;;;;;2.40;2.20;;;11.70;75.00;;;;;;5032415;28;20443;-83
2022/09/25 04:55:23;;;;;;;2.70;2.20;;;11.80;74.90;;;;;;5032186;28;20056;-82
2022/09/25 04:57:53;;;;;;;2.45;2.22;;;11.80;74.90;;;;;;5030028;28;20191;-82
2022/09/25 05:00:20;;;;;;;2.42;2.20;;;11.80;74.80;;;;;;5031072;28;20036;-82
2022/09/25 05:02:46;;;;;;;2.17;1.98;;;11.90;74.90;;;;;;5030714;28;20103;-82
2022/09/25 05:05:13;;;;;;;2.83;2.30;;;11.90;74.90;;;;;;5033653;28;20025;-82
2022/09/25 05:07:38;;;;;;;3.03;2.10;;;12.00;75.00;;;;;;5037644;28;20030;-82
2022/09/25 05:10:07;;;;;;;2.40;2.20;;;12.10;75.00;;;;;;5036967;28;20519;-82
2022/09/25 05:12:33;;;;;;;1.83;1.73;;;12.10;75.00;;;;;;5037319;28;20041;-82
2022/09/25 05:14:59;;;;;;;2.55;2.30;;;12.20;75.00;;;;;;5036608;28;20025;-83
2022/09/25 05:17:25;;;;;;;1.95;1.85;;;12.30;74.70;;;;;;5037756;28;20025;-82
2022/09/25 05:19:50;;;;;;;4.00;2.10;;;12.40;74.50;;;;;;5028050;28;20022;-82
2022/09/25 05:22:16;;;;;;;2.30;2.10;;;12.40;74.50;;;;;;5037324;28;20061;-83
2022/09/25 05:24:41;;;;;;;2.15;1.92;;;12.40;74.40;;;;;;5037140;28;20049;-82
2022/09/25 05:27:07;;;;;;;2.50;2.30;;;12.50;74.40;;;;;;5038993;28;20017;-83
2022/09/25 05:29:33;;;;;;;2.22;2.00;;;12.60;74.30;;;;;;5038730;28;20028;-82
2022/09/25 05:31:59;;;;;;;1.85;1.70;;;12.60;74.70;;;;;;5034651;28;20362;-83
2022/09/25 05:34:25;;;;;;;2.15;1.98;;;12.70;74.00;;;;;;5035762;28;20021;-83
2022/09/25 05:36:51;;;;;;;3.38;2.92;;;12.70;74.00;;;;;;5025026;28;20022;-82
2022/09/25 05:39:17;;;;;;;2.17;1.98;;;12.80;73.90;;;;;;5036472;28;20397;-83
2022/09/25 05:41:42;;;;;;;2.25;2.03;;;12.80;73.80;;;;;;5038420;28;20034;-82
2022/09/25 05:44:08;;;;;;;2.30;2.10;;;12.80;73.70;;;;;;5037215;28;20400;-83
2022/09/25 05:46:38;;;;;;;3.55;2.10;;;12.80;73.70;;;;;;5036742;28;20026;-83
2022/09/25 05:49:04;;;;;;;2.03;1.90;;;12.90;73.80;;;;;;5038349;28;20481;-83
2022/09/25 05:51:30;;;;;;;2.20;2.00;;;12.90;73.90;;;;;;5037316;28;20017;-82
2022/09/25 05:53:56;;;;;;;2.45;2.25;;;13.10;74.00;;;;;;5039081;28;20543;-83
2022/09/25 05:56:25;;;;;;;2.38;2.17;;;13.10;73.60;;;;;;5038979;28;20033;-83
2022/09/25 05:58:51;;;;;;;2.33;2.13;;;13.30;73.90;;;;;;5038291;28;20033;-84
2022/09/25 06:01:18;;;;;;;2.50;2.22;;;13.70;73.90;;;;;;5033453;28;20060;-83
2022/09/25 06:03:44;;;;;;;2.72;2.25;;;14.30;73.60;;;;;;5030411;28;20453;-83
2022/09/25 06:06:09;;;;;;;4.18;2.50;;;15.10;72.50;;;;;;5038898;28;20438;-83
2022/09/25 06:08:35;;;;;;;3.30;2.63;;;15.70;70.60;;;;;;5036946;28;20519;-83
2022/09/25 06:11:01;;;;;;;3.72;2.60;;;16.30;68.90;;;;;;5037329;28;20476;-84
2022/09/25 06:13:30;;;;;;;2.65;2.35;;;16.80;67.00;;;;;;5036170;28;20056;-83
2022/09/25 06:15:56;;;;;;;2.78;2.25;;;17.00;65.70;;;;;;5033876;28;20025;-83
2022/09/25 06:18:23;;;;;;;2.38;2.17;;;17.00;65.30;;;;;;5033595;28;20041;-83
2022/09/25 06:20:50;;;;;;;2.20;2.00;;;16.70;65.50;;;;;;5034653;28;20036;-83
2022/09/25 06:23:16;;;;;;;2.53;2.05;;;16.40;65.90;;;;;;5034950;28;20030;-84
2022/09/25 06:25:42;;;;;;;2.40;2.15;;;16.20;66.50;;;;;;5033691;28;20083;-83
2022/09/25 06:28:09;;;;;;;2.17;2.00;;;15.90;66.80;;;;;;5034167;28;20480;-83
2022/09/25 06:30:37;;;;;;;2.22;1.90;;;15.70;67.10;;;;;;5032867;28;20515;-83
2022/09/25 06:33:08;;;;;;;2.20;2.00;;;15.50;67.80;;;;;;5035644;28;20025;-84
2022/09/25 06:35:39;;;;;;;1.73;1.63;;;15.40;68.10;;;;;;5035307;28;20037;-83
2022/09/25 06:38:05;;;;;;;1.75;1.65;;;15.30;68.30;;;;;;5027029;28;20049;-83
2022/09/25 06:40:31;;;;;;;1.98;1.88;;;15.20;68.80;;;;;;5032308;28;20118;-84
2022/09/25 06:43:02;;;;;;;2.30;2.10;;;15.10;68.70;;;;;;5034244;28;20033;-83
2022/09/25 06:45:31;;;;;;;1.80;1.70;;;15.10;68.70;;;;;;5034692;28;20021;-83
2022/09/25 06:48:09;;;;;;;1.98;1.88;;;15.00;68.80;;;;;;5031828;28;20029;-83
2022/09/25 06:50:53;;;;;;;2.15;1.95;;;15.00;68.90;;;;;;5035143;28;20036;-83
2022/09/25 06:53:21;;;;;;;1.60;1.50;;;15.00;68.90;;;;;;5034005;28;20048;-83
2022/09/25 06:55:48;;;;;;;2.53;2.03;;;15.00;69.00;;;;;;5033547;28;20544;-83
2022/09/25 06:58:19;;;;;;;2.35;1.80;;;15.00;68.60;;;;;;5033013;28;20030;-84
2022/09/25 07:00:50;;;;;;;1.83;1.73;;;15.00;68.70;;;;;;5030170;28;20026;-83
2022/09/25 07:06:00;;;;;;;2.38;1.83;;;15.00;68.50;;;;;;5033818;28;20080;-83
2022/09/25 07:08:27;;;;;;;2.25;2.00;;;15.00;68.50;;;;;;5032960;28;20104;-84
2022/09/25 07:10:57;;;;;;;2.10;1.77;;;15.00;68.40;;;;;;5031927;28;20071;-84
2022/09/25 07:13:26;;;;;;;2.10;1.95;;;15.00;68.40;;;;;;5035691;28;20147;-84
2022/09/25 07:15:56;;;;;;;3.10;2.30;;;15.00;68.30;;;;;;5034314;28;20030;-84
2022/09/25 07:18:23;;;;;;;2.00;1.88;;;15.00;68.10;;;;;;5038050;28;20084;-84
2022/09/25 07:20:49;;;;;;;2.10;2.00;;;15.00;68.00;;;;;;5038455;28;20025;-84
2022/09/25 07:23:16;;;;;;;2.47;2.05;;;15.00;67.80;;;;;;5032215;28;20026;-84
2022/09/25 07:25:44;;;;;;;2.83;2.00;;;15.10;67.70;;;;;;5033538;28;20110;-84
2022/09/25 07:28:11;;;;;;;2.30;2.10;;;15.10;67.90;;;;;;5035156;28;20022;-84
2022/09/25 07:30:37;;;;;;;2.80;1.90;;;15.10;67.60;;;;;;5035901;28;20137;-84
2022/09/25 07:33:03;;;;;;;1.77;1.67;;;15.10;67.40;;;;;;5036563;28;20061;-84
2022/09/25 07:35:29;;;;;;;2.17;1.98;;;15.20;67.40;;;;;;5035186;28;20032;-84
2022/09/25 07:37:57;;;;;;;2.20;2.00;;;15.10;67.20;;;;;;5038047;28;20052;-84
2022/09/25 07:40:26;;;;;;;2.28;2.00;;;15.10;66.90;;;;;;5035896;28;20112;-84
2022/09/25 07:42:52;;;;;;;2.38;1.92;;;15.10;67.00;;;;;;5036453;28;20036;-84
2022/09/25 07:45:18;;;;;;;1.40;1.35;;;15.20;67.00;;;;;;5037842;28;20018;-84
2022/09/25 07:47:43;;;;;;;1.95;1.80;;;15.20;67.00;;;;;;5036937;28;20030;-84
2022/09/25 07:50:09;;;;;;;2.20;2.00;;;15.20;66.80;;;;;;5037724;28;20053;-84
2022/09/25 07:52:35;;;;;;;2.63;1.98;;;15.20;66.80;;;;;;5037637;28;20033;-84
2022/09/25 07:55:00;;;;;;;1.95;1.85;;;15.30;66.70;;;;;;5035333;28;20524;-84
2022/09/25 07:57:27;;;;;;;1.83;1.73;;;15.30;66.60;;;;;;5037634;28;20495;-84
2022/09/25 07:59:52;;;;;;;2.85;2.03;;;15.30;66.70;;;;;;5037093;28;20025;-84
2022/09/25 08:02:18;;;;;;;2.40;2.20;;;15.30;66.60;;;;;;5034567;28;20393;-84
2022/09/25 08:04:43;;;;;;;2.05;1.88;;;15.30;66.50;;;;;;5037345;28;20037;-84
2022/09/25 08:07:09;;;;;;;2.17;1.95;;;15.30;66.50;;;;;;5039050;28;20029;-84
2022/09/25 08:09:35;;;;;;;2.20;2.03;;;15.30;66.60;;;;;;5039419;28;20040;-85
2022/09/25 08:12:01;;;;;;;2.20;2.00;;;15.30;66.30;;;;;;5035799;28;20091;-84
2022/09/25 08:14:27;;;;;;;2.10;1.90;;;15.30;66.10;;;;;;5037139;28;20025;-85
2022/09/25 08:16:54;;;;;;;2.17;1.90;;;15.30;65.80;;;;;;5039393;28;20025;-84
2022/09/25 08:19:22;;;;;;;1.65;1.55;;;15.30;65.80;;;;;;5028036;28;20152;-84
2022/09/25 08:21:49;;;;;;;2.38;2.03;;;15.30;66.00;;;;;;5034838;28;20479;-84
2022/09/25 08:24:15;;;;;;;1.95;1.85;;;15.30;66.00;;;;;;5034305;28;20033;-84
2022/09/25 08:26:40;;;;;;;2.28;2.08;;;15.30;65.90;;;;;;5029954;28;20021;-82
2022/09/25 08:29:08;;;;;;;1.80;1.70;;;15.40;65.90;;;;;;5031860;28;20032;-82
2022/09/25 08:31:33;;;;;;;2.00;1.80;;;15.30;65.70;;;;;;5033351;28;20028;-81
2022/09/25 08:33:59;;;;;;;2.22;2.03;;;15.30;65.70;;;;;;5031715;28;20423;-81
2022/09/25 08:36:25;;;;;;;3.13;2.28;;;15.30;65.80;;;;;;5031295;28;20025;-81
2022/09/25 08:38:57;;;;;;;1.95;1.80;;;15.30;65.70;;;;;;5032137;28;20075;-81
2022/09/25 08:41:25;;;;;;;2.00;1.88;;;15.40;65.60;;;;;;5027247;28;20026;-81
2022/09/25 08:44:04;;;;;;;1.90;1.80;;;15.40;65.40;;;;;;5029836;28;20041;-81
2022/09/25 08:49:38;;;;;;;2.30;2.10;;;15.40;65.50;;;;;;5032636;28;20510;-81
2022/09/25 08:52:10;;;;;;;1.80;1.70;;;15.50;65.40;;;;;;5031016;28;20025;-81
2022/09/25 08:54:36;;;;;;;3.13;1.90;;;15.50;65.20;;;;;;5030781;28;20108;-81
2022/09/25 08:57:17;;;;;;;2.10;1.90;;;15.50;65.10;;;;;;5030888;28;20575;-81
2022/09/25 08:59:47;;;;;;;1.75;1.65;;;15.60;65.00;;;;;;5030029;28;20396;-80
2022/09/25 09:02:17;;;;;;;1.75;1.65;;;15.60;64.80;;;;;;5025322;28;20040;-81
2022/09/25 09:04:53;;;;;;;2.40;1.90;;;15.70;64.90;;;;;;5027289;28;20544;-82
2022/09/25 09:07:28;;;;;;;1.77;1.67;;;15.80;64.90;;;;;;5029857;28;20385;-80
2022/09/25 09:10:19;;;;;;;1.75;1.65;;;15.80;64.70;;;;;;5029205;28;20049;-80
2022/09/25 09:13:21;;;;;;;1.15;1.15;;;15.90;64.60;;;;;;5027304;28;20030;-80
2022/09/25 09:15:56;;;;;;;1.30;1.20;;;16.00;64.80;;;;;;5017593;28;20026;-80
2022/09/25 09:18:27;;;;;;;1.55;1.45;;;16.10;64.70;;;;;;5027763;28;20422;-81
2022/09/25 09:20:58;;;;;;;1.85;1.73;;;16.20;64.40;;;;;;5032260;28;20009;-80
2022/09/25 09:24:07;;;;;;;1.50;1.40;;;16.30;64.10;;;;;;5030663;28;20034;-80
2022/09/25 09:26:54;;;;;;;1.83;1.70;;;16.40;63.90;;;;;;5000136;28;20263;-80
2022/09/25 09:29:27;;;;;;;1.60;1.50;;;16.50;63.50;;;;;;5016695;28;20026;-80
2022/09/25 09:32:31;;;;;;;1.55;1.45;;;16.50;63.20;;;;;;5030473;28;20021;-81
2022/09/25 09:35:18;;;;;;;1.48;1.38;;;16.60;63.30;;;;;;4983715;28;20034;-81
2022/09/25 09:38:01;;;;;;;2.03;1.40;;;16.60;63.00;;;;;;4972029;28;20030;-81
2022/09/25 09:40:41;;;;;;;1.80;1.58;;;16.70;62.70;;;;;;5013284;28;20041;-81
2022/09/25 09:43:28;;;;;;;1.60;1.50;;;16.70;62.60;;;;;;5031291;28;20083;-81
2022/09/25 09:46:35;;;;;;;1.90;1.80;;;16.70;62.00;;;;;;5030741;28;20026;-81
2022/09/25 09:49:18;;;;;;;1.55;1.45;;;16.70;61.60;;;;;;5023647;28;20064;-81
2022/09/25 09:51:54;;;;;;;1.90;1.80;;;16.70;61.30;;;;;;5032483;28;20428;-81
2022/09/25 09:54:34;;;;;;;1.60;1.50;;;16.70;61.30;;;;;;5032860;28;20029;-81
2022/09/25 09:57:04;;;;;;;1.90;1.80;;;16.70;61.40;;;;;;5025527;28;20026;-81
2022/09/25 09:59:46;;;;;;;1.80;1.33;;;16.70;61.60;;;;;;5033940;28;20029;-81
2022/09/25 10:02:36;;;;;;;1.67;1.58;;;16.70;61.70;;;;;;5030354;28;20030;-81
2022/09/25 10:05:08;;;;;;;1.70;1.60;;;16.80;61.30;;;;;;5022623;28;20480;-81
2022/09/25 10:07:37;;;;;;;1.83;1.55;;;16.80;61.20;;;;;;5033295;28;20167;-81
2022/09/25 10:10:13;;;;;;;1.45;1.35;;;16.80;61.00;;;;;;5033085;28;20079;-80
2022/09/25 10:12:49;;;;;;;1.50;1.40;;;16.90;60.90;;;;;;5032272;28;20037;-81
2022/09/25 10:15:39;;;;;;;1.67;1.58;;;16.90;60.80;;;;;;5033581;28;20396;-80
2022/09/25 10:18:05;;;;;;;1.77;1.48;;;17.00;60.90;;;;;;5032983;28;20045;-81
2022/09/25 10:20:41;;;;;;;1.95;1.70;;;17.00;60.70;;;;;;5033231;28;20033;-82
2022/09/25 10:23:37;;;;;;;2.78;1.58;;;17.10;60.40;;;;;;5034683;28;20484;-80
2022/09/25 10:26:21;;;;;;;1.58;1.48;;;17.10;60.20;;;;;;5029356;28;20037;-82
2022/09/25 10:28:47;;;;;;;1.92;1.75;;;17.20;60.30;;;;;;5034110;28;20495;-80
2022/09/25 10:31:15;;;;;;;1.50;1.40;;;17.20;60.00;;;;;;5033582;28;20539;-80
2022/09/25 10:33:40;;;;;;;1.85;1.75;;;17.30;59.70;;;;;;5033131;28;20022;-80
2022/09/25 10:36:06;;;;;;;1.52;1.42;;;17.20;59.20;;;;;;5032282;28;20043;-81
2022/09/25 10:38:42;;;;;;;2.13;1.70;;;17.20;59.20;;;;;;5032717;28;20132;-86
2022/09/25 10:41:12;;;;;;;1.73;1.60;;;17.20;59.10;;;;;;5034620;28;20151;-82
2022/09/25 10:44:17;;;;;;;1.58;1.45;;;17.20;59.30;;;;;;5032940;28;20037;-83
2022/09/25 10:52:14;;;;;;;1.45;1.35;;;17.30;58.70;;;;;;5026699;28;20037;-82
2022/09/25 10:54:40;;;;;;;1.33;1.23;;;17.30;58.80;;;;;;5029506;28;20025;-84
2022/09/25 10:57:37;;;;;;;1.45;1.35;;;17.30;58.80;;;;;;5036696;28;20021;-84
2022/09/25 11:00:17;;;;;;;1.80;1.50;;;17.30;58.90;;;;;;5033898;28;20030;-83
2022/09/25 11:02:45;;;;;;;1.80;1.70;;;17.30;58.70;;;;;;5031489;28;20112;-83
2022/09/25 11:05:18;;;;;;;1.70;1.60;;;17.30;58.50;;;;;;5031322;28;20080;-82
2022/09/25 11:07:51;;;;;;;1.80;1.70;;;17.30;58.50;;;;;;5033600;28;20383;-82
2022/09/25 11:10:34;;;;;;;1.52;1.42;;;17.30;58.40;;;;;;5024846;28;20036;-82
2022/09/25 11:13:07;;;;;;;1.23;1.13;;;17.30;58.40;;;;;;5047773;28;20480;-82
2022/09/25 11:15:35;;;;;;;1.55;1.45;;;17.40;58.60;;;;;;5037371;28;20031;-82
2022/09/25 11:18:05;;;;;;;1.40;1.10;;;17.40;59.00;;;;;;5036876;28;20016;-82
2022/09/25 11:20:31;;;;;;;1.02;0.95;;;17.50;59.50;;;;;;5036396;28;20120;-82
2022/09/25 11:23:20;;;;;;;1.30;1.20;;;17.50;58.80;;;;;;5036672;28;20032;-82
2022/09/25 11:26:09;;;;;;;1.65;1.55;;;17.60;58.60;;;;;;5055458;28;20426;-83
2022/09/25 11:28:51;;;;;;;1.50;1.40;;;17.70;58.40;;;;;;5036618;28;20032;-82
2022/09/25 11:31:34;;;;;;;1.52;1.42;;;17.60;58.40;;;;;;5037261;28;20404;-83
2022/09/25 11:34:18;;;;;;;1.67;1.58;;;17.70;58.40;;;;;;5037343;28;20025;-83
2022/09/25 11:37:11;;;;;;;1.42;1.33;;;17.70;58.30;;;;;;5035405;28;20036;-83
2022/09/25 11:42:57;;;;;;;1.58;1.48;;;17.70;58.30;;;;;;5044995;28;20067;-83
2022/09/25 11:45:29;;;;;;;1.45;1.35;;;17.60;58.30;;;;;;5054724;28;20021;-83
2022/09/25 11:48:02;;;;;;;1.90;1.60;;;17.60;58.40;;;;;;5036787;28;20024;-83
2022/09/25 11:50:45;;;;;;;1.73;1.63;;;17.60;58.30;;;;;;5036077;28;20017;-83
2022/09/25 11:53:37;;;;;;;1.27;1.17;;;17.60;58.60;;;;;;5049109;28;20106;-83
2022/09/25 11:56:23;;;;;;;1.80;1.45;;;17.70;58.20;;;;;;5036021;28;20032;-83
2022/09/25 11:59:07;;;;;;;1.40;1.30;;;17.70;58.50;;;;;;5003728;28;20607;-82
2022/09/25 12:01:40;;;;;;;1.13;1.13;;;17.70;58.20;;;;;;5054540;28;20021;-83
2022/09/25 12:04:15;;;;;;;1.42;1.33;;;17.80;58.10;;;;;;5036757;28;20021;-83
2022/09/25 12:06:47;;;;;;;1.52;1.42;;;17.80;58.00;;;;;;5035300;28;20051;-83
2022/09/25 12:09:52;;;;;;;1.50;1.40;;;17.80;58.00;;;;;;5033747;28;20029;-83
2022/09/25 12:12:46;;;;;;;1.70;1.60;;;17.80;57.60;;;;;;5050923;28;20037;-83
2022/09/25 12:15:19;;;;;;;1.98;1.35;;;17.80;57.50;;;;;;5035492;28;20025;-83
2022/09/25 12:17:57;;;;;;;1.50;1.40;;;17.80;57.60;;;;;;5033039;28;20063;-83
2022/09/25 12:20:36;;;;;;;2.28;1.50;;;17.90;57.80;;;;;;5034862;28;20490;-83
2022/09/25 12:23:15;;;;;;;1.40;1.30;;;17.90;57.80;;;;;;5036558;28;20025;-82
2022/09/25 12:25:47;;;;;;;1.40;1.30;;;17.90;57.80;;;;;;5035415;28;20071;-82
2022/09/25 12:28:38;;;;;;;1.05;1.05;;;18.00;57.80;;;;;;5036514;28;20021;-83
2022/09/25 12:31:11;;;;;;;1.70;1.60;;;18.00;57.80;;;;;;5026225;28;20025;-83
2022/09/25 12:34:10;;;;;;;1.13;1.10;;;18.00;57.80;;;;;;5034547;28;20136;-83
2022/09/25 12:36:43;;;;;;;1.42;1.35;;;18.00;57.60;;;;;;5048960;28;20032;-83
2022/09/25 12:39:44;;;;;;;1.42;1.33;;;18.00;57.70;;;;;;5041484;28;20430;-83
2022/09/25 12:42:16;;;;;;;1.60;1.45;;;18.00;57.70;;;;;;5006153;28;20116;-83
2022/09/25 12:45:08;;;;;;;1.80;1.67;;;17.90;57.60;;;;;;5035192;28;20029;-84
2022/09/25 12:47:41;;;;;;;1.30;1.20;;;17.90;57.60;;;;;;5026484;28;20036;-83
2022/09/25 12:50:30;;;;;;;1.60;1.50;;;17.90;57.60;;;;;;5034963;28;20021;-83
2022/09/25 12:53:03;;;;;;;1.40;1.30;;;17.90;57.60;;;;;;5035618;28;20037;-83
2022/09/25 12:55:43;;;;;;;1.40;1.20;;;17.90;57.60;;;;;;5053816;28;20025;-83
2022/09/25 12:58:50;;;;;;;3.00;1.67;;;17.90;57.60;;;;;;5035987;28;20399;-83
2022/09/25 13:01:28;;;;;;;1.80;1.70;;;17.90;57.70;;;;;;5034944;28;20037;-82
2022/09/25 13:04:17;;;;;;;1.90;1.70;;;17.80;57.50;;;;;;5027258;28;20076;-83
2022/09/25 13:06:56;;;;;;;1.85;1.75;;;17.80;57.60;;;;;;5022948;28;20024;-83
2022/09/25 13:09:28;;;;;;;2.20;1.95;;;17.80;57.60;;;;;;5051519;28;20112;-83
2022/09/25 13:12:07;;;;;;;2.08;1.80;;;17.80;57.40;;;;;;5034909;28;20488;-82
2022/09/25 13:14:43;;;;;;;1.40;1.30;;;17.90;57.60;;;;;;5033461;28;20025;-83
2022/09/25 13:17:14;;;;;;;1.67;1.33;;;17.80;57.80;;;;;;5035178;28;20400;-83
2022/09/25 13:19:40;;;;;;;1.55;1.45;;;17.80;57.90;;;;;;5026690;28;20444;-83
2022/09/25 13:22:23;;;;;;;1.50;1.40;;;17.80;57.80;;;;;;5053605;28;20056;-83
2022/09/25 13:25:12;;;;;;;1.25;1.25;;;17.80;57.80;;;;;;5030992;28;20028;-83
2022/09/25 13:27:41;;;;;;;1.70;1.60;;;17.90;57.80;;;;;;5037787;28;20036;-83
2022/09/25 13:30:27;;;;;;;1.38;1.27;;;17.90;57.60;;;;;;5039466;28;20042;-83
2022/09/25 13:32:56;;;;;;;2.13;1.92;;;17.90;57.60;;;;;;5039194;28;20025;-82
2022/09/25 13:35:22;;;;;;;1.23;1.23;;;17.80;57.50;;;;;;5054305;28;20571;-83